Time;durP1;ratioP1;P1;durP2;ratioP2;P2;SDS_P1;SDS_P2;PMS_P1;PMS_P2;Temp;Humidity;BMP_temperature;BMP_pressure;BME280_temperature;BME280_humidity;BME280_pressure;Samples;Min_cycle;Max_cycle;Signal;HPM_P1;HPM_P2
2023/04/06 00:01:37;;;;;;;16.13;9.70;;;5.50;99.90;;;;;;4960685;28;20016;-71
2023/04/06 00:04:03;;;;;;;15.93;10.00;;;5.50;99.90;;;;;;4960400;28;20043;-71
2023/04/06 00:06:29;;;;;;;12.25;9.48;;;5.50;99.90;;;;;;4960616;28;20030;-71
2023/04/06 00:08:55;;;;;;;16.38;10.93;;;5.40;99.90;;;;;;4960451;28;20019;-71
2023/04/06 00:11:21;;;;;;;16.08;10.13;;;5.40;99.90;;;;;;4960424;28;20019;-71
2023/04/06 00:13:47;;;;;;;15.27;10.90;;;5.40;99.90;;;;;;4960015;28;20031;-71
2023/04/06 00:16:13;;;;;;;15.90;10.82;;;5.30;99.90;;;;;;4960374;28;20031;-71
2023/04/06 00:18:39;;;;;;;14.18;10.30;;;5.30;99.90;;;;;;4960112;28;20038;-71
2023/04/06 00:21:05;;;;;;;16.05;9.77;;;5.20;99.90;;;;;;4960091;28;20420;-71
2023/04/06 00:23:31;;;;;;;13.75;9.18;;;5.10;99.90;;;;;;4959545;29;20403;-71
2023/04/06 00:25:57;;;;;;;13.48;9.35;;;5.00;99.90;;;;;;4960143;29;20127;-71
2023/04/06 00:28:25;;;;;;;16.83;10.02;;;5.10;99.90;;;;;;4959809;28;20055;-71
2023/04/06 00:30:55;;;;;;;14.32;9.65;;;5.10;99.90;;;;;;4959990;28;20476;-71
2023/04/06 00:33:22;;;;;;;13.38;9.18;;;5.00;99.90;;;;;;4959827;28;20023;-71
2023/04/06 00:35:48;;;;;;;13.50;9.75;;;5.00;99.90;;;;;;4960078;28;20027;-71
2023/04/06 00:38:15;;;;;;;12.55;9.45;;;5.00;99.90;;;;;;4959693;28;20027;-71
2023/04/06 00:40:41;;;;;;;14.98;10.13;;;5.00;99.90;;;;;;4959876;29;20030;-71
2023/04/06 00:43:09;;;;;;;14.60;9.85;;;5.00;99.90;;;;;;4959645;28;20034;-71
2023/04/06 00:45:35;;;;;;;12.48;9.25;;;4.90;99.90;;;;;;4959797;28;20123;-71
2023/04/06 00:48:01;;;;;;;14.98;10.60;;;4.90;99.90;;;;;;4955728;28;20087;-71
2023/04/06 00:50:27;;;;;;;14.15;10.23;;;4.80;99.90;;;;;;4959667;28;20027;-71
2023/04/06 00:52:54;;;;;;;15.32;10.88;;;4.80;99.90;;;;;;4959281;28;20031;-71
2023/04/06 00:55:20;;;;;;;15.90;10.50;;;4.70;99.90;;;;;;4959686;28;20030;-71
2023/04/06 00:57:45;;;;;;;12.98;9.75;;;4.70;99.90;;;;;;4959627;28;20032;-71
2023/04/06 01:00:12;;;;;;;16.75;10.32;;;4.60;99.90;;;;;;4959313;28;20034;-71
2023/04/06 01:02:38;;;;;;;14.73;9.93;;;4.60;99.90;;;;;;4959697;29;20023;-71
2023/04/06 01:05:04;;;;;;;14.93;10.95;;;4.50;99.90;;;;;;4959276;28;20035;-71
2023/04/06 01:07:30;;;;;;;15.02;11.60;;;4.50;99.90;;;;;;4959495;28;20116;-71
2023/04/06 01:09:56;;;;;;;11.40;9.10;;;4.50;99.90;;;;;;4959378;28;20499;-71
2023/04/06 01:12:22;;;;;;;11.73;9.10;;;4.40;99.90;;;;;;4959498;29;20106;-71
2023/04/06 01:14:48;;;;;;;13.65;8.77;;;4.50;99.90;;;;;;4958936;28;20032;-71
2023/04/06 01:17:13;;;;;;;14.07;9.15;;;4.50;99.90;;;;;;4959547;29;20503;-71
2023/04/06 01:19:40;;;;;;;13.02;8.80;;;4.60;99.90;;;;;;4959076;28;20031;-71
2023/04/06 01:22:06;;;;;;;13.93;9.48;;;4.60;99.90;;;;;;4959496;28;20372;-71
2023/04/06 01:24:32;;;;;;;13.20;9.57;;;4.60;99.90;;;;;;4959069;28;20034;-71
2023/04/06 01:26:58;;;;;;;14.35;9.80;;;4.60;99.90;;;;;;4959034;29;20049;-71
2023/04/06 01:29:24;;;;;;;14.23;9.20;;;4.50;99.90;;;;;;4958710;28;20106;-71
2023/04/06 01:31:50;;;;;;;12.18;9.38;;;4.50;99.90;;;;;;4959069;29;20035;-71
2023/04/06 01:34:16;;;;;;;14.80;9.52;;;4.40;99.90;;;;;;4958932;29;20035;-71
2023/04/06 01:36:42;;;;;;;14.43;10.02;;;4.30;99.90;;;;;;4959101;28;20090;-71
2023/04/06 01:39:07;;;;;;;12.40;9.65;;;4.30;99.90;;;;;;4959128;28;20027;-71
2023/04/06 01:41:33;;;;;;;11.95;9.57;;;4.30;99.90;;;;;;4959114;29;20030;-71
2023/04/06 01:43:59;;;;;;;11.52;9.25;;;4.30;99.90;;;;;;4958564;29;20035;-71
2023/04/06 01:46:25;;;;;;;11.55;9.32;;;4.20;99.90;;;;;;4959026;29;20106;-71
2023/04/06 01:48:50;;;;;;;11.18;9.32;;;4.20;99.90;;;;;;4958608;28;20039;-71
2023/04/06 01:51:16;;;;;;;10.95;8.90;;;4.20;99.90;;;;;;4958999;29;20027;-71
2023/04/06 01:53:42;;;;;;;15.73;9.82;;;4.20;99.90;;;;;;4958679;28;20035;-71
2023/04/06 01:56:07;;;;;;;10.60;8.38;;;4.20;99.90;;;;;;4959068;28;20023;-71
2023/04/06 01:58:33;;;;;;;14.68;8.35;;;4.20;99.90;;;;;;4958164;28;20027;-71
2023/04/06 02:00:59;;;;;;;11.82;9.20;;;4.20;99.90;;;;;;4958879;28;20019;-71
2023/04/06 02:03:25;;;;;;;12.48;8.55;;;4.10;99.90;;;;;;4958703;28;20125;-71
2023/04/06 02:05:50;;;;;;;11.32;8.30;;;4.10;99.90;;;;;;4961496;28;20126;-71
2023/04/06 02:08:16;;;;;;;14.40;8.52;;;4.20;99.90;;;;;;4962631;28;20027;-71
2023/04/06 02:10:41;;;;;;;10.35;8.40;;;4.20;99.90;;;;;;4961365;28;20031;-71
2023/04/06 02:13:07;;;;;;;13.85;8.38;;;4.20;99.90;;;;;;4962016;28;20032;-71
2023/04/06 02:15:33;;;;;;;9.07;8.15;;;4.10;99.90;;;;;;4961410;29;20103;-71
2023/04/06 02:17:59;;;;;;;8.82;7.90;;;4.10;99.90;;;;;;4962318;28;20029;-71
2023/04/06 02:20:25;;;;;;;10.07;8.77;;;4.10;99.90;;;;;;4962432;28;20047;-71
2023/04/06 02:22:51;;;;;;;12.23;9.07;;;4.00;99.90;;;;;;4962310;29;20031;-71
2023/04/06 02:25:16;;;;;;;14.02;8.57;;;4.00;99.90;;;;;;4961207;29;20035;-71
2023/04/06 02:27:42;;;;;;;11.30;9.68;;;4.00;99.90;;;;;;4962275;29;20031;-71
2023/04/06 02:30:08;;;;;;;13.23;9.63;;;4.00;99.90;;;;;;4962324;28;20039;-71
2023/04/06 02:32:34;;;;;;;9.27;8.02;;;4.00;99.90;;;;;;4961871;28;20023;-71
2023/04/06 02:35:00;;;;;;;10.10;8.68;;;4.00;99.90;;;;;;4962322;28;20027;-71
2023/04/06 02:37:26;;;;;;;11.95;8.90;;;4.10;99.90;;;;;;4961987;28;20078;-71
2023/04/06 02:39:51;;;;;;;13.82;8.68;;;4.10;99.90;;;;;;4961069;29;20518;-71
2023/04/06 02:42:17;;;;;;;10.48;8.30;;;4.00;99.90;;;;;;4962049;28;20030;-71
2023/04/06 02:44:43;;;;;;;11.35;8.75;;;4.00;99.90;;;;;;4962017;29;20062;-71
2023/04/06 02:47:09;;;;;;;10.68;8.93;;;4.00;99.90;;;;;;4960525;28;20054;-71
2023/04/06 02:49:35;;;;;;;10.30;8.57;;;3.90;99.90;;;;;;4961803;28;20038;-71
2023/04/06 02:52:01;;;;;;;13.35;7.90;;;3.90;99.90;;;;;;4961836;28;20034;-71
2023/04/06 02:54:27;;;;;;;8.73;7.82;;;4.00;99.90;;;;;;4962005;28;20035;-71
2023/04/06 02:56:53;;;;;;;9.90;8.40;;;3.90;99.90;;;;;;4961748;28;20020;-71
2023/04/06 02:59:18;;;;;;;11.10;7.72;;;3.90;99.90;;;;;;4961740;28;20023;-71
2023/04/06 03:01:44;;;;;;;11.68;8.68;;;3.90;99.90;;;;;;4961174;28;20127;-71
2023/04/06 03:04:10;;;;;;;9.65;8.43;;;3.90;99.90;;;;;;4961658;28;20019;-71
2023/04/06 03:06:36;;;;;;;12.32;8.15;;;3.90;99.90;;;;;;4960852;29;20503;-71
2023/04/06 03:09:02;;;;;;;9.13;7.60;;;3.90;99.90;;;;;;4961800;29;20023;-71
2023/04/06 03:11:28;;;;;;;9.13;8.10;;;3.90;99.90;;;;;;4961352;28;20020;-71
2023/04/06 03:13:53;;;;;;;11.35;8.27;;;4.00;99.90;;;;;;4960018;29;20078;-71
2023/04/06 03:16:19;;;;;;;9.90;8.48;;;4.00;99.90;;;;;;4961286;28;20034;-71
2023/04/06 03:18:46;;;;;;;10.43;7.90;;;4.00;99.90;;;;;;4961508;28;20063;-71
2023/04/06 03:21:12;;;;;;;10.07;8.13;;;4.00;99.90;;;;;;4961219;28;20043;-71
2023/04/06 03:23:38;;;;;;;11.23;7.78;;;4.00;99.90;;;;;;4961501;29;20032;-71
2023/04/06 03:26:04;;;;;;;8.32;7.53;;;4.10;99.90;;;;;;4961222;28;20126;-71
2023/04/06 03:28:31;;;;;;;10.80;7.45;;;4.10;99.90;;;;;;4961275;28;20051;-71
2023/04/06 03:30:56;;;;;;;8.57;6.30;;;4.10;99.90;;;;;;4961296;28;20028;-71
2023/04/06 03:33:22;;;;;;;6.70;6.10;;;4.20;99.90;;;;;;4961063;28;20450;-71
2023/04/06 03:35:48;;;;;;;8.30;7.07;;;4.20;99.90;;;;;;4961060;28;20023;-71
2023/04/06 03:38:14;;;;;;;11.93;7.95;;;4.30;99.90;;;;;;4961145;28;20045;-71
2023/04/06 03:40:40;;;;;;;8.88;7.30;;;4.30;99.90;;;;;;4960939;28;20054;-71
2023/04/06 03:43:05;;;;;;;7.20;6.50;;;4.40;99.90;;;;;;4959857;28;20035;-71
2023/04/06 03:45:31;;;;;;;8.60;7.55;;;4.40;99.90;;;;;;4960935;28;20412;-71
2023/04/06 03:47:57;;;;;;;8.57;7.28;;;4.40;99.90;;;;;;4960826;28;20033;-71
2023/04/06 03:50:22;;;;;;;7.95;7.13;;;4.40;99.90;;;;;;4960757;28;20121;-71
2023/04/06 03:52:48;;;;;;;8.20;6.75;;;4.40;99.90;;;;;;4960998;29;20056;-71
2023/04/06 03:55:14;;;;;;;8.57;6.78;;;4.40;99.90;;;;;;4960726;28;20015;-71
2023/04/06 03:57:40;;;;;;;6.55;5.90;;;4.40;99.90;;;;;;4960284;28;20039;-71
2023/04/06 04:00:07;;;;;;;9.93;6.80;;;4.40;99.90;;;;;;4960590;28;20440;-71
2023/04/06 04:02:33;;;;;;;8.82;6.72;;;4.40;99.90;;;;;;4960405;28;20111;-71
2023/04/06 04:04:59;;;;;;;8.40;7.25;;;4.40;99.90;;;;;;4960522;28;20035;-71
2023/04/06 04:07:25;;;;;;;10.73;7.05;;;4.40;99.90;;;;;;4959164;28;20097;-71
2023/04/06 04:09:50;;;;;;;14.55;7.38;;;4.40;99.90;;;;;;4960528;28;20430;-71
2023/04/06 04:12:16;;;;;;;8.48;6.78;;;4.40;99.90;;;;;;4960362;28;20058;-71
2023/04/06 04:14:43;;;;;;;7.53;6.72;;;4.50;99.90;;;;;;4960167;28;20403;-71
2023/04/06 04:17:09;;;;;;;10.57;7.57;;;4.50;99.90;;;;;;4960453;28;20404;-71
2023/04/06 04:19:35;;;;;;;9.90;8.50;;;4.50;99.90;;;;;;4960023;28;20030;-71
2023/04/06 04:22:00;;;;;;;10.73;7.72;;;4.50;99.90;;;;;;4960130;28;20023;-71
2023/04/06 04:24:26;;;;;;;12.23;7.80;;;4.50;99.90;;;;;;4960219;28;20023;-71
2023/04/06 04:26:52;;;;;;;9.50;7.95;;;4.50;99.90;;;;;;4954500;28;20024;-71
2023/04/06 04:29:20;;;;;;;16.42;7.63;;;4.60;99.90;;;;;;4959615;28;20496;-71
2023/04/06 04:31:46;;;;;;;9.85;7.72;;;4.60;99.90;;;;;;4961072;28;20026;-71
2023/04/06 04:34:12;;;;;;;8.82;7.40;;;4.60;99.90;;;;;;4960446;28;20027;-71
2023/04/06 04:36:38;;;;;;;8.85;7.60;;;4.60;99.90;;;;;;4961060;28;20078;-71
2023/04/06 04:39:04;;;;;;;11.50;7.78;;;4.60;99.90;;;;;;4958808;28;20555;-71
2023/04/06 04:41:30;;;;;;;12.55;8.00;;;4.60;99.90;;;;;;4953643;28;20102;-71
2023/04/06 04:43:55;;;;;;;13.70;8.40;;;4.50;99.90;;;;;;4957739;28;20472;-71
2023/04/06 04:46:21;;;;;;;11.25;7.13;;;4.50;99.90;;;;;;4959751;28;20049;-71
2023/04/06 04:48:47;;;;;;;8.73;7.03;;;4.50;99.90;;;;;;4959696;28;20032;-71
2023/04/06 04:51:12;;;;;;;9.35;7.13;;;4.50;99.90;;;;;;4959644;28;20031;-71
2023/04/06 04:53:38;;;;;;;10.93;7.65;;;4.50;99.90;;;;;;4959543;28;20156;-71
2023/04/06 04:56:04;;;;;;;8.40;7.22;;;4.60;99.90;;;;;;4958193;28;20015;-71
2023/04/06 04:58:30;;;;;;;14.05;7.65;;;4.60;99.90;;;;;;4958119;28;20069;-71
2023/04/06 05:00:55;;;;;;;10.52;7.70;;;4.60;99.90;;;;;;4957988;28;20023;-71
2023/04/06 05:03:24;;;;;;;11.55;8.02;;;4.60;99.90;;;;;;4959361;28;20031;-71
2023/04/06 05:05:50;;;;;;;11.57;9.40;;;4.70;99.90;;;;;;4958992;28;20020;-71
2023/04/06 05:08:16;;;;;;;13.40;10.73;;;4.70;99.90;;;;;;4959427;29;20033;-71
2023/04/06 05:10:42;;;;;;;12.45;7.82;;;4.70;99.90;;;;;;4958644;29;20023;-71
2023/04/06 05:13:08;;;;;;;9.90;7.82;;;4.70;99.90;;;;;;4957534;28;20031;-70
2023/04/06 05:15:40;;;;;;;9.20;7.45;;;4.70;99.90;;;;;;4959440;28;20090;-71
2023/04/06 05:18:07;;;;;;;11.82;8.05;;;4.70;99.90;;;;;;4959187;28;20023;-71
2023/04/06 05:20:34;;;;;;;11.43;7.50;;;4.70;99.90;;;;;;4959211;28;20045;-71
2023/04/06 05:23:00;;;;;;;10.73;7.85;;;4.80;99.90;;;;;;4957972;28;20062;-71
2023/04/06 05:25:26;;;;;;;8.57;7.18;;;4.80;99.90;;;;;;4959040;29;20030;-71
2023/04/06 05:27:52;;;;;;;16.08;8.20;;;4.70;99.90;;;;;;4959009;28;20027;-71
2023/04/06 05:30:18;;;;;;;10.70;7.40;;;4.70;99.90;;;;;;4959064;28;20439;-71
2023/04/06 05:32:44;;;;;;;9.57;7.07;;;4.70;99.90;;;;;;4959164;28;20066;-71
2023/04/06 05:35:11;;;;;;;13.15;7.70;;;4.70;99.90;;;;;;4957782;28;20065;-71
2023/04/06 05:37:37;;;;;;;8.43;7.35;;;4.70;99.90;;;;;;4957877;29;20155;-71
2023/04/06 05:40:03;;;;;;;11.25;8.30;;;4.70;99.90;;;;;;4958191;28;20051;-71
2023/04/06 05:42:37;;;;;;;8.88;7.18;;;4.60;99.90;;;;;;4959278;28;20034;-71
2023/04/06 05:45:04;;;;;;;11.15;7.82;;;4.60;99.90;;;;;;4958830;28;20026;-71
2023/04/06 05:47:29;;;;;;;12.77;8.32;;;4.60;99.90;;;;;;4957605;28;20038;-71
2023/04/06 05:49:55;;;;;;;10.82;7.95;;;4.60;99.90;;;;;;4958941;29;20027;-71
2023/04/06 05:52:21;;;;;;;8.27;7.43;;;4.60;99.90;;;;;;4958577;28;20039;-71
2023/04/06 05:54:46;;;;;;;9.45;8.02;;;4.60;99.90;;;;;;4958855;28;20027;-71
2023/04/06 05:57:12;;;;;;;9.50;7.63;;;4.50;99.90;;;;;;4956603;28;20058;-71
2023/04/06 05:59:38;;;;;;;9.95;7.97;;;4.50;99.90;;;;;;4958415;29;20022;-71
2023/04/06 06:02:03;;;;;;;9.90;7.95;;;4.50;99.90;;;;;;4957961;29;20488;-71
2023/04/06 06:04:30;;;;;;;11.15;8.45;;;4.60;99.90;;;;;;4957628;28;20464;-71
2023/04/06 06:06:56;;;;;;;11.13;8.52;;;4.60;99.90;;;;;;4958504;28;20042;-70
2023/04/06 06:09:22;;;;;;;10.30;8.10;;;4.70;99.90;;;;;;4957357;28;20024;-71
2023/04/06 06:11:48;;;;;;;10.95;7.07;;;4.80;99.90;;;;;;4958689;29;20138;-71
2023/04/06 06:14:15;;;;;;;9.52;7.72;;;4.90;99.90;;;;;;4958035;28;20095;-71
2023/04/06 06:16:40;;;;;;;9.25;7.30;;;4.90;99.90;;;;;;4946781;28;20110;-71
2023/04/06 06:19:06;;;;;;;12.40;7.25;;;5.00;99.90;;;;;;4957146;28;20136;-71
2023/04/06 06:21:32;;;;;;;10.57;7.43;;;5.20;99.90;;;;;;4945774;28;20048;-71
2023/04/06 06:23:57;;;;;;;10.25;6.90;;;5.20;99.90;;;;;;4963501;28;20037;-71
2023/04/06 06:26:23;;;;;;;10.50;7.68;;;5.40;99.90;;;;;;4972786;28;20038;-70
2023/04/06 06:28:49;;;;;;;8.65;7.75;;;5.40;99.90;;;;;;4964095;28;20023;-70
2023/04/06 06:31:15;;;;;;;20.88;7.85;;;5.60;99.90;;;;;;4964778;28;20520;-71
2023/04/06 06:33:40;;;;;;;13.20;8.88;;;5.60;99.90;;;;;;4971864;28;20045;-70
2023/04/06 06:36:06;;;;;;;11.27;9.18;;;5.70;99.90;;;;;;4959061;28;20484;-70
2023/04/06 06:38:32;;;;;;;18.98;9.32;;;5.70;99.90;;;;;;4966506;28;20651;-71
2023/04/06 06:40:57;;;;;;;13.90;8.85;;;5.80;99.90;;;;;;4965506;28;20506;-71
2023/04/06 06:43:23;;;;;;;11.30;8.77;;;6.00;99.90;;;;;;4968874;28;20122;-71
2023/04/06 06:45:49;;;;;;;12.13;9.02;;;6.10;99.90;;;;;;4968108;28;20031;-71
2023/04/06 06:48:15;;;;;;;16.33;8.82;;;6.20;99.90;;;;;;4970066;28;20515;-71
2023/04/06 06:50:41;;;;;;;9.70;8.05;;;6.30;99.90;;;;;;4968257;28;20049;-71
2023/04/06 06:53:06;;;;;;;9.27;8.18;;;6.40;99.90;;;;;;4972873;28;20034;-70
2023/04/06 06:55:32;;;;;;;8.73;7.63;;;6.60;99.90;;;;;;4967030;28;20047;-71
2023/04/06 06:57:58;;;;;;;11.88;8.10;;;6.80;99.90;;;;;;4962454;28;20023;-70
2023/04/06 07:00:24;;;;;;;9.15;7.35;;;7.00;99.90;;;;;;4961605;28;20102;-71
2023/04/06 07:02:50;;;;;;;12.05;7.07;;;7.10;99.90;;;;;;4961942;28;20082;-71
2023/04/06 07:05:16;;;;;;;24.00;7.57;;;7.20;99.90;;;;;;4960274;29;20028;-71
2023/04/06 07:07:42;;;;;;;10.90;7.13;;;7.30;99.90;;;;;;4961903;28;20077;-71
2023/04/06 07:10:08;;;;;;;12.77;7.50;;;7.30;99.90;;;;;;4961619;28;20035;-71
2023/04/06 07:12:34;;;;;;;8.63;6.90;;;7.30;99.90;;;;;;4961566;28;20031;-71
2023/04/06 07:15:00;;;;;;;9.30;7.47;;;7.40;99.90;;;;;;4955974;28;20019;-69
2023/04/06 07:17:26;;;;;;;9.00;6.60;;;7.50;99.90;;;;;;4961559;29;20020;-68
2023/04/06 07:19:51;;;;;;;14.25;6.75;;;7.50;99.90;;;;;;4959825;28;20404;-68
2023/04/06 07:22:17;;;;;;;11.45;7.70;;;7.70;99.90;;;;;;4960998;28;20023;-68
2023/04/06 07:24:42;;;;;;;8.50;7.13;;;7.80;99.90;;;;;;4961356;29;20031;-69
2023/04/06 07:27:08;;;;;;;11.45;7.22;;;7.80;99.90;;;;;;4954876;28;20111;-68
2023/04/06 07:29:34;;;;;;;15.93;8.50;;;7.90;99.90;;;;;;4960099;29;20027;-68
2023/04/06 07:32:00;;;;;;;11.85;8.95;;;7.80;99.90;;;;;;4959224;29;20220;-68
2023/04/06 07:34:25;;;;;;;15.70;7.60;;;7.90;99.90;;;;;;4958240;28;20023;-68
2023/04/06 07:36:53;;;;;;;10.52;7.88;;;7.90;99.90;;;;;;4959297;29;20171;-68
2023/04/06 07:39:19;;;;;;;16.90;7.22;;;8.00;99.90;;;;;;4957848;28;20168;-68
2023/04/06 07:41:45;;;;;;;22.17;9.25;;;8.00;99.90;;;;;;4952548;29;20057;-68
2023/04/06 07:44:11;;;;;;;10.98;7.95;;;8.20;99.90;;;;;;4959042;29;20562;-68
2023/04/06 07:46:37;;;;;;;11.75;7.50;;;8.20;99.90;;;;;;4959704;29;20043;-68
2023/04/06 07:49:02;;;;;;;13.90;9.00;;;8.40;99.90;;;;;;4960828;29;20027;-68
2023/04/06 07:51:28;;;;;;;10.68;7.22;;;8.50;99.90;;;;;;4960954;28;20031;-68
2023/04/06 07:53:54;;;;;;;15.02;7.40;;;8.70;99.90;;;;;;4960605;28;20116;-68
2023/04/06 07:56:20;;;;;;;13.70;7.28;;;9.00;99.90;;;;;;4960927;28;20024;-69
2023/04/06 07:58:46;;;;;;;12.70;8.80;;;9.30;99.90;;;;;;4959242;29;20439;-69
2023/04/06 08:01:12;;;;;;;12.50;6.90;;;9.60;99.90;;;;;;4959572;29;20093;-69
2023/04/06 08:03:38;;;;;;;18.80;7.90;;;9.80;99.90;;;;;;4959656;28;20027;-68
2023/04/06 08:06:04;;;;;;;13.02;6.68;;;10.00;99.90;;;;;;4960811;29;20038;-68
2023/04/06 08:08:31;;;;;;;10.93;6.75;;;10.30;99.90;;;;;;4960596;29;20015;-68
2023/04/06 08:10:56;;;;;;;7.07;6.18;;;10.50;99.90;;;;;;4960522;28;20046;-68
2023/04/06 08:13:22;;;;;;;17.95;6.43;;;10.60;99.90;;;;;;4960322;28;20023;-68
2023/04/06 08:15:48;;;;;;;10.93;6.03;;;10.70;99.90;;;;;;4960577;28;20102;-70
2023/04/06 08:18:14;;;;;;;9.63;6.38;;;10.90;99.90;;;;;;4960388;29;20023;-68
2023/04/06 08:20:40;;;;;;;6.35;4.70;;;10.90;99.90;;;;;;4960411;28;20122;-69
2023/04/06 08:23:06;;;;;;;6.32;4.15;;;11.00;99.90;;;;;;4948904;28;20057;-69
2023/04/06 08:25:35;;;;;;;8.07;5.05;;;11.10;99.90;;;;;;4958957;28;20098;-68
2023/04/06 08:28:01;;;;;;;7.50;4.63;;;11.00;99.90;;;;;;4956011;29;20082;-69
2023/04/06 08:30:26;;;;;;;9.73;5.68;;;11.00;99.90;;;;;;4960238;29;20039;-69
2023/04/06 08:32:52;;;;;;;7.30;4.60;;;10.90;99.90;;;;;;4958901;28;20538;-69
2023/04/06 08:35:18;;;;;;;15.35;5.13;;;10.90;99.90;;;;;;4959174;29;20030;-68
2023/04/06 08:37:44;;;;;;;12.68;5.20;;;11.10;99.90;;;;;;4959921;28;20028;-68
2023/04/06 08:40:10;;;;;;;7.60;5.18;;;11.30;99.90;;;;;;4959975;28;20015;-68
2023/04/06 08:42:41;;;;;;;7.22;4.38;;;11.30;99.90;;;;;;4959805;29;20023;-69
2023/04/06 08:45:09;;;;;;;6.55;4.20;;;11.40;99.90;;;;;;4959901;28;20023;-69
2023/04/06 08:47:36;;;;;;;5.35;4.30;;;11.50;99.90;;;;;;4959771;29;20447;-68
2023/04/06 08:50:04;;;;;;;6.22;4.20;;;11.60;99.90;;;;;;4959720;29;20037;-69
2023/04/06 08:52:32;;;;;;;9.75;4.28;;;11.70;99.90;;;;;;4946373;28;20374;-68
2023/04/06 08:54:58;;;;;;;8.07;4.18;;;11.70;99.90;;;;;;4956328;28;20035;-69
2023/04/06 08:57:25;;;;;;;8.48;4.53;;;11.90;99.90;;;;;;4971382;28;20019;-69
2023/04/06 08:59:51;;;;;;;5.72;4.45;;;11.90;99.90;;;;;;4968409;28;20040;-69
2023/04/06 09:02:18;;;;;;;7.50;4.72;;;12.10;99.90;;;;;;4960053;28;20031;-70
2023/04/06 09:04:47;;;;;;;7.65;4.82;;;12.10;99.90;;;;;;4961090;28;20050;-69
2023/04/06 09:07:15;;;;;;;7.35;4.65;;;12.10;99.90;;;;;;4959383;28;20059;-69
2023/04/06 09:09:47;;;;;;;6.90;5.13;;;12.20;99.90;;;;;;4962849;28;20027;-69
2023/04/06 09:12:29;;;;;;;8.80;5.30;;;12.20;99.90;;;;;;4958107;28;20035;-69
2023/04/06 09:14:55;;;;;;;6.57;4.88;;;12.30;99.90;;;;;;4960093;28;20081;-69
2023/04/06 09:17:27;;;;;;;9.80;5.35;;;12.50;99.90;;;;;;4958504;28;20035;-69
2023/04/06 09:19:53;;;;;;;10.23;5.88;;;12.60;99.90;;;;;;4958312;28;20138;-69
2023/04/06 09:22:19;;;;;;;9.13;5.53;;;12.80;99.90;;;;;;4953565;28;20029;-69
2023/04/06 09:24:50;;;;;;;12.07;5.35;;;12.90;99.90;;;;;;4956824;28;20547;-70
2023/04/06 09:27:16;;;;;;;;;;;13.20;99.90;;;;;;4956799;28;20027;-69
2023/04/06 09:29:43;;;;;;;8.88;5.15;;;13.20;99.90;;;;;;4958177;28;19910;-70
2023/04/06 09:32:10;;;;;;;12.55;5.68;;;13.10;99.90;;;;;;4955504;28;20073;-69
2023/04/06 09:34:38;;;;;;;9.73;5.22;;;13.10;99.90;;;;;;4957239;28;20019;-70
2023/04/06 09:37:17;;;;;;;10.52;5.60;;;13.10;99.90;;;;;;4956490;28;20468;-69
2023/04/06 09:39:44;;;;;;;7.30;5.03;;;13.30;99.90;;;;;;4956927;28;20102;-69
2023/04/06 09:42:10;;;;;;;17.63;6.20;;;13.40;99.90;;;;;;4953989;28;20031;-69
2023/04/06 09:44:35;;;;;;;9.10;5.82;;;13.30;99.90;;;;;;4957069;28;20030;-70
2023/04/06 09:47:06;;;;;;;11.43;6.07;;;13.20;99.90;;;;;;4956259;28;20035;-69
2023/04/06 09:49:33;;;;;;;7.47;5.43;;;13.10;99.90;;;;;;4957159;28;20018;-69
2023/04/06 09:52:02;;;;;;;10.20;5.50;;;13.20;99.90;;;;;;4954763;28;20031;-69
2023/04/06 09:54:31;;;;;;;12.65;5.50;;;13.10;99.90;;;;;;4957036;28;20020;-70
2023/04/06 09:57:16;;;;;;;10.30;4.93;;;13.20;99.90;;;;;;4956545;28;20027;-69
2023/04/06 09:59:47;;;;;;;9.18;5.30;;;13.30;99.90;;;;;;4956350;28;20045;-69
2023/04/06 10:02:39;;;;;;;11.95;5.30;;;13.40;99.90;;;;;;4954286;28;20119;-70
2023/04/06 10:05:07;;;;;;;14.57;6.60;;;13.30;99.90;;;;;;4946710;28;20054;-70
2023/04/06 10:07:33;;;;;;;8.00;5.68;;;13.30;99.90;;;;;;4958337;28;20491;-70
2023/04/06 10:10:02;;;;;;;14.02;6.07;;;13.40;99.90;;;;;;4959412;28;20035;-70
2023/04/06 10:12:27;;;;;;;6.40;4.53;;;13.70;99.90;;;;;;4958285;28;20027;-69
2023/04/06 10:14:54;;;;;;;9.68;4.88;;;14.10;99.90;;;;;;4960771;28;20030;-70
2023/04/06 10:17:20;;;;;;;8.30;5.28;;;14.30;99.90;;;;;;4958818;28;20027;-70
2023/04/06 10:20:03;;;;;;;7.40;5.28;;;14.30;99.90;;;;;;4958179;28;20031;-70
2023/04/06 10:22:57;;;;;;;9.95;5.05;;;14.60;99.90;;;;;;4956862;28;20035;-70
2023/04/06 10:25:30;;;;;;;14.05;5.60;;;15.00;99.90;;;;;;4961524;28;20101;-69
2023/04/06 10:28:07;;;;;;;11.00;5.88;;;14.90;99.90;;;;;;4972935;28;20033;-70
2023/04/06 10:30:42;;;;;;;7.63;4.80;;;14.80;99.90;;;;;;4972899;28;20057;-70
2023/04/06 10:33:14;;;;;;;9.65;4.43;;;14.90;99.90;;;;;;4971115;28;20497;-69
2023/04/06 10:35:40;;;;;;;6.45;4.70;;;14.70;99.90;;;;;;4975866;28;20030;-70
2023/04/06 10:38:07;;;;;;;10.10;5.05;;;14.30;99.90;;;;;;4974543;28;20023;-70
2023/04/06 10:40:37;;;;;;;8.80;4.43;;;14.00;99.90;;;;;;4974822;28;20042;-70
2023/04/06 10:43:11;;;;;;;9.03;4.77;;;13.70;99.90;;;;;;4975162;28;20031;-70
2023/04/06 10:45:37;;;;;;;6.13;4.80;;;13.50;99.90;;;;;;4972881;28;20023;-70
2023/04/06 10:48:42;;;;;;;9.35;4.47;;;13.50;99.90;;;;;;4974997;28;20030;-69
2023/04/06 10:51:13;;;;;;;12.68;5.22;;;13.50;99.90;;;;;;4964342;28;20047;-69
2023/04/06 10:53:48;;;;;;;10.98;4.93;;;13.60;99.90;;;;;;4966076;28;20476;-69
2023/04/06 10:56:17;;;;;;;15.65;5.20;;;13.50;99.90;;;;;;4968702;28;20109;-70
2023/04/06 10:58:52;;;;;;;8.02;5.00;;;13.60;99.90;;;;;;4967399;28;20019;-70
2023/04/06 11:01:20;;;;;;;5.95;4.13;;;13.70;99.90;;;;;;4973512;28;20098;-70
2023/04/06 11:03:47;;;;;;;6.68;4.38;;;13.90;99.90;;;;;;4964895;28;20508;-70
2023/04/06 11:06:26;;;;;;;10.40;4.20;;;14.10;99.90;;;;;;4971365;28;20446;-70
2023/04/06 11:08:53;;;;;;;7.20;4.65;;;14.30;99.20;;;;;;4971464;28;20027;-70
2023/04/06 11:11:20;;;;;;;6.97;3.88;;;14.30;98.50;;;;;;4966224;28;20024;-69
2023/04/06 11:13:50;;;;;;;6.38;3.90;;;14.30;95.60;;;;;;4967477;28;20083;-70
2023/04/06 11:16:24;;;;;;;7.43;4.15;;;14.20;95.40;;;;;;4973432;28;20015;-70
2023/04/06 11:19:00;;;;;;;7.72;4.65;;;14.20;95.70;;;;;;4968501;28;20073;-70
2023/04/06 11:21:41;;;;;;;4.05;3.38;;;14.30;95.30;;;;;;4974138;28;20035;-70
2023/04/06 11:24:11;;;;;;;10.30;3.90;;;14.30;93.20;;;;;;4970209;28;20027;-69
2023/04/06 11:26:39;;;;;;;5.72;3.70;;;14.40;92.60;;;;;;4969023;28;20030;-70
2023/04/06 11:29:06;;;;;;;6.15;3.53;;;14.40;93.00;;;;;;4973243;28;20035;-70
2023/04/06 11:31:37;;;;;;;5.10;3.20;;;14.50;92.10;;;;;;4970239;28;20399;-69
2023/04/06 11:34:09;;;;;;;6.55;3.25;;;14.50;91.90;;;;;;4968244;28;20052;-70
2023/04/06 11:36:35;;;;;;;4.78;3.40;;;14.70;89.80;;;;;;4971897;28;20016;-70
2023/04/06 11:39:03;;;;;;;6.65;3.95;;;14.60;90.50;;;;;;4971566;28;20057;-70
2023/04/06 11:41:30;;;;;;;5.18;3.13;;;14.80;90.70;;;;;;4975532;28;20391;-70
2023/04/06 11:43:56;;;;;;;5.40;3.17;;;14.90;89.20;;;;;;4968092;28;20488;-70
2023/04/06 11:46:22;;;;;;;6.47;3.40;;;14.90;88.20;;;;;;4970345;28;20573;-69
2023/04/06 11:48:47;;;;;;;6.93;3.40;;;15.00;90.00;;;;;;4973118;28;20447;-70
2023/04/06 11:51:23;;;;;;;7.35;3.92;;;14.90;91.80;;;;;;4973974;28;20025;-70
2023/04/06 11:53:49;;;;;;;7.00;3.38;;;15.00;88.40;;;;;;4966320;28;20050;-71
2023/04/06 11:56:28;;;;;;;4.70;3.33;;;15.10;90.70;;;;;;4976671;28;20019;-71
2023/04/06 11:58:59;;;;;;;3.83;2.90;;;15.30;88.70;;;;;;4963083;28;20126;-71
2023/04/06 12:01:25;;;;;;;5.45;2.90;;;15.40;82.40;;;;;;4968167;28;20023;-71
2023/04/06 12:03:52;;;;;;;5.95;2.95;;;15.50;83.10;;;;;;4968402;28;20038;-71
2023/04/06 12:06:18;;;;;;;3.90;2.80;;;15.50;80.50;;;;;;4971069;28;20085;-71
2023/04/06 12:08:46;;;;;;;7.90;3.78;;;15.50;81.00;;;;;;4967381;28;20030;-71
2023/04/06 12:11:12;;;;;;;4.22;3.13;;;15.50;81.80;;;;;;4974168;28;20031;-71
2023/04/06 12:13:38;;;;;;;4.63;2.80;;;15.60;83.00;;;;;;4969484;28;20403;-70
2023/04/06 12:16:05;;;;;;;16.85;3.17;;;15.70;80.70;;;;;;4973162;28;20023;-71
2023/04/06 12:18:31;;;;;;;3.38;2.53;;;15.80;78.60;;;;;;4970672;28;20569;-71
2023/04/06 12:20:56;;;;;;;6.60;2.90;;;15.70;79.90;;;;;;4970460;28;20046;-71
2023/04/06 12:23:22;;;;;;;5.15;2.75;;;15.80;82.00;;;;;;4965529;28;20105;-71
2023/04/06 12:25:48;;;;;;;4.93;2.53;;;16.00;80.00;;;;;;4967317;28;20034;-72
2023/04/06 12:28:14;;;;;;;3.95;2.58;;;16.20;80.30;;;;;;4958126;28;20058;-72
2023/04/06 12:30:40;;;;;;;3.40;2.33;;;16.40;78.60;;;;;;4960258;28;20027;-69
2023/04/06 12:33:06;;;;;;;11.77;2.80;;;16.40;72.30;;;;;;4967145;28;20035;-71
2023/04/06 12:35:36;;;;;;;4.10;2.80;;;16.40;73.60;;;;;;4971153;28;20034;-69
2023/04/06 12:38:02;;;;;;;5.53;2.95;;;16.40;70.50;;;;;;4965270;28;20029;-69
2023/04/06 12:40:28;;;;;;;5.32;2.60;;;16.40;73.00;;;;;;4970871;28;20015;-70
2023/04/06 12:42:53;;;;;;;3.35;2.38;;;16.50;71.90;;;;;;4970354;28;20037;-70
2023/04/06 12:45:19;;;;;;;5.88;2.35;;;16.60;72.50;;;;;;4968958;28;20031;-70
2023/04/06 12:47:45;;;;;;;4.00;2.53;;;16.70;73.40;;;;;;4970695;28;20041;-70